Time;durP1;ratioP1;P1;durP2;ratioP2;P2;SDS_P1;SDS_P2;PMS_P1;PMS_P2;Temp;Humidity;BMP_temperature;BMP_pressure;BME280_temperature;BME280_humidity;BME280_pressure;Samples;Min_cycle;Max_cycle;Signal;HPM_P1;HPM_P2
2022/12/09 00:01:18;;;;;;;60.78;49.28;;;;;;;-0.30;100.00;100498.44;5000507;28;20076;-82
2022/12/09 00:03:44;;;;;;;62.08;48.58;;;;;;;-0.34;100.00;100488.91;5004667;28;20029;-82
2022/12/09 00:06:16;;;;;;;62.67;49.17;;;;;;;-0.31;100.00;100494.97;5006389;28;20676;-81
2022/12/09 00:08:42;;;;;;;63.00;48.90;;;;;;;-0.22;100.00;100501.84;5005981;28;20502;-81
2022/12/09 00:11:07;;;;;;;59.60;48.38;;;;;;;-0.23;100.00;100486.16;5007232;28;20030;-81
2022/12/09 00:13:33;;;;;;;59.28;47.60;;;;;;;-0.22;100.00;100483.53;5007189;28;20232;-80
2022/12/09 00:15:58;;;;;;;58.95;47.47;;;;;;;-0.21;100.00;100495.72;5006600;28;20024;-82
2022/12/09 00:18:24;;;;;;;60.40;47.45;;;;;;;-0.17;100.00;100494.78;5005938;28;20061;-81
2022/12/09 00:20:49;;;;;;;59.22;47.10;;;;;;;-0.23;100.00;100478.31;5005089;28;20044;-82
2022/12/09 00:23:14;;;;;;;58.35;47.53;;;;;;;-0.22;100.00;100475.69;5006641;28;20040;-82
2022/12/09 00:25:40;;;;;;;58.05;46.63;;;;;;;-0.16;100.00;100483.47;5007972;28;20018;-83
2022/12/09 00:28:05;;;;;;;61.58;48.08;;;;;;;-0.18;100.00;100477.38;5004770;28;20463;-82
2022/12/09 00:30:30;;;;;;;57.20;46.45;;;;;;;-0.12;100.00;100486.91;5002226;28;20204;-82
2022/12/09 00:32:56;;;;;;;56.05;45.95;;;;;;;-0.13;100.00;100485.16;5004539;28;20041;-82
2022/12/09 00:35:22;;;;;;;59.30;47.50;;;;;;;-0.08;100.00;100491.22;5003969;28;20045;-82
2022/12/09 00:37:47;;;;;;;60.00;46.80;;;;;;;-0.13;100.00;100483.41;5002976;28;20467;-82
2022/12/09 00:40:13;;;;;;;58.45;46.53;;;;;;;-0.06;100.00;100489.44;5002211;28;20536;-82
2022/12/09 00:42:38;;;;;;;57.70;46.13;;;;;;;-0.08;100.00;100483.38;5003478;28;20030;-82
2022/12/09 00:45:04;;;;;;;59.17;45.58;;;;;;;-0.10;100.00;100488.59;5003541;28;20026;-82
2022/12/09 00:47:30;;;;;;;55.20;44.72;;;;;;;-0.07;100.00;100491.19;5001828;28;20036;-82
2022/12/09 00:49:55;;;;;;;52.63;43.38;;;;;;;-0.08;100.00;100491.22;4997161;28;20030;-82
2022/12/09 00:52:20;;;;;;;56.63;44.58;;;;;;;-0.20;100.00;100473.94;5001551;28;20509;-82
2022/12/09 00:54:46;;;;;;;55.92;45.47;;;;;;;-0.16;100.00;100478.22;5003416;28;20028;-81
2022/12/09 00:57:11;;;;;;;52.78;44.13;;;;;;;-0.10;100.00;100485.97;5003606;28;20037;-82
2022/12/09 00:59:36;;;;;;;57.22;45.13;;;;;;;-0.10;100.00;100491.22;5003835;28;20064;-82
2022/12/09 01:02:02;;;;;;;56.22;44.33;;;;;;;-0.11;100.00;100486.03;5002447;28;20211;-81
2022/12/09 01:04:27;;;;;;;58.20;45.67;;;;;;;-0.14;100.00;100480.81;5000935;28;20021;-82
2022/12/09 01:06:52;;;;;;;54.47;44.53;;;;;;;-0.11;100.00;100480.78;5002858;28;20784;-81
2022/12/09 01:09:18;;;;;;;55.20;43.05;;;;;;;-0.11;100.00;100476.41;5003504;28;20029;-82
2022/12/09 01:11:43;;;;;;;56.70;44.90;;;;;;;-0.09;100.00;100485.09;5005988;28;20108;-82
2022/12/09 01:14:09;;;;;;;54.70;43.65;;;;;;;-0.17;100.00;100481.72;5007340;28;20046;-81
2022/12/09 01:16:35;;;;;;;54.50;42.40;;;;;;;-0.18;100.00;100479.13;5006280;28;20026;-82
2022/12/09 01:19:06;;;;;;;55.47;43.35;;;;;;;-0.09;100.00;100489.47;5008859;28;20022;-82
2022/12/09 01:21:33;;;;;;;57.90;45.47;;;;;;;-0.11;100.00;100491.25;5007980;28;20447;-82
2022/12/09 01:24:00;;;;;;;60.30;45.78;;;;;;;-0.13;100.00;100490.38;5007470;28;20021;-82
2022/12/09 01:26:25;;;;;;;60.47;45.55;;;;;;;-0.07;100.00;100496.41;5007086;28;20026;-82
2022/12/09 01:28:51;;;;;;;53.13;43.83;;;;;;;-0.10;100.00;100493.84;5006530;28;20095;-83
2022/12/09 01:31:20;;;;;;;52.70;42.58;;;;;;;-0.21;100.00;100480.00;5003960;28;20103;-83
2022/12/09 01:33:46;;;;;;;52.65;42.65;;;;;;;-0.12;100.00;100484.28;5016466;28;20081;-81
2022/12/09 01:36:20;;;;;;;50.15;42.35;;;;;;;-0.09;100.00;100495.56;5011043;28;20041;-82
2022/12/09 01:38:46;;;;;;;51.63;41.35;;;;;;;-0.16;100.00;100487.84;5003435;28;20810;-81
2022/12/09 01:41:13;;;;;;;53.03;43.38;;;;;;;-0.10;100.00;100490.34;4999583;28;20040;-81
2022/12/09 01:43:39;;;;;;;53.92;43.92;;;;;;;-0.12;100.00;100479.94;5007097;28;20066;-81
2022/12/09 01:46:05;;;;;;;56.80;45.10;;;;;;;-0.05;100.00;100485.94;5008284;28;20057;-81
2022/12/09 01:48:35;;;;;;;53.30;42.33;;;;;;;-0.13;100.00;100487.78;5007661;28;20049;-82
2022/12/09 01:51:06;;;;;;;54.40;43.03;;;;;;;-0.10;100.00;100487.75;5003793;28;20041;-81
2022/12/09 01:53:36;;;;;;;50.92;41.47;;;;;;;-0.15;100.00;100485.19;5011341;28;20478;-80
2022/12/09 01:56:09;;;;;;;48.40;40.75;;;;;;;-0.10;100.00;100496.44;5012689;28;20025;-81
2022/12/09 01:58:35;;;;;;;52.72;41.63;;;;;;;-0.04;100.00;100492.91;5007872;28;20022;-82
2022/12/09 02:01:01;;;;;;;49.05;41.33;;;;;;;-0.06;100.00;100486.81;5010262;28;20068;-82
2022/12/09 02:03:26;;;;;;;51.20;41.40;;;;;;;-0.04;100.00;100492.91;5004281;28;20083;-82
2022/12/09 02:05:51;;;;;;;51.40;41.47;;;;;;;-0.09;100.00;100479.88;5009097;28;20431;-82
2022/12/09 02:08:18;;;;;;;49.65;40.65;;;;;;;-0.12;100.00;100477.31;5009384;28;20034;-83
2022/12/09 02:11:08;;;;;;;54.75;43.67;;;;;;;0.00;100.00;100492.00;5003012;28;20045;-83
2022/12/09 02:13:46;;;;;;;55.78;43.05;;;;;;;0.02;100.00;100494.56;5008707;28;20483;-82
2022/12/09 02:16:16;;;;;;;54.67;43.85;;;;;;;0.02;100.00;100492.81;5007190;28;20061;-82
2022/12/09 02:19:03;;;;;;;51.25;41.72;;;;;;;-0.02;100.00;100470.19;5003319;28;20026;-82
2022/12/09 02:21:29;;;;;;;52.00;42.53;;;;;;;0.03;100.00;100485.81;4995314;28;20491;-82
2022/12/09 02:24:02;;;;;;;53.33;42.42;;;;;;;0.02;100.00;100487.59;5007202;28;20035;-82
2022/12/09 02:26:37;;;;;;;56.22;43.70;;;;;;;0.02;100.00;100487.59;5007824;28;20029;-83
2022/12/09 02:29:08;;;;;;;51.50;43.47;;;;;;;0.03;100.00;100483.22;5002632;28;20080;-82
2022/12/09 02:31:51;;;;;;;55.50;43.92;;;;;;;0.01;100.00;100491.09;5004762;28;20022;-82
2022/12/09 02:34:21;;;;;;;56.67;42.83;;;;;;;0.02;100.00;100486.72;5007461;28;20025;-82
2022/12/09 02:37:05;;;;;;;55.97;45.13;;;;;;;0.03;100.00;100486.69;5008290;28;20366;-82
2022/12/09 02:39:50;;;;;;;57.97;45.83;;;;;;;0.05;100.00;100478.84;5003074;28;20038;-81
2022/12/09 02:42:19;;;;;;;57.63;44.42;;;;;;;0.05;100.00;100492.78;5005671;28;20056;-81
2022/12/09 02:44:48;;;;;;;58.88;46.38;;;;;;;0.07;100.00;100482.28;5011280;28;20033;-82
2022/12/09 02:47:17;;;;;;;62.13;48.00;;;;;;;0.07;100.00;100483.16;5011194;28;20029;-82
2022/12/09 02:49:46;;;;;;;57.00;46.38;;;;;;;0.09;100.00;100480.53;5004309;28;20033;-82
2022/12/09 02:52:12;;;;;;;59.17;45.75;;;;;;;0.08;100.00;100476.16;5002846;28;20069;-82
2022/12/09 02:54:39;;;;;;;61.90;48.15;;;;;;;0.09;100.00;100481.38;5010827;28;20033;-82
2022/12/09 02:57:11;;;;;;;66.05;49.28;;;;;;;0.11;100.00;100490.06;5008360;28;20026;-82
2022/12/09 02:59:37;;;;;;;57.97;47.08;;;;;;;0.08;100.00;100476.16;5001636;28;20084;-82
2022/12/09 03:02:13;;;;;;;62.38;48.65;;;;;;;0.09;100.00;100472.69;5006402;28;20531;-82
2022/12/09 03:04:43;;;;;;;65.13;47.55;;;;;;;0.12;100.00;100488.31;5000249;28;20438;-81
2022/12/09 03:07:17;;;;;;;62.03;48.50;;;;;;;0.11;100.00;100481.34;5001449;28;20034;-82
2022/12/09 03:09:49;;;;;;;65.38;48.38;;;;;;;0.07;100.00;100471.81;5003865;28;20026;-82
2022/12/09 03:12:18;;;;;;;61.20;45.83;;;;;;;0.05;100.00;100478.84;5006034;28;20040;-82
2022/12/09 03:14:49;;;;;;;62.13;47.38;;;;;;;0.01;100.00;100478.00;5008563;28;20121;-83
2022/12/09 03:17:21;;;;;;;63.35;47.35;;;;;;;0.00;100.00;100471.06;5001371;28;20084;-81
2022/12/09 03:19:53;;;;;;;62.45;46.75;;;;;;;-0.02;100.00;100470.19;5002565;28;20034;-81
2022/12/09 03:22:27;;;;;;;63.80;48.25;;;;;;;-0.02;100.00;100475.44;5005107;28;20136;-82
2022/12/09 03:25:09;;;;;;;68.18;49.90;;;;;;;-0.06;100.00;100463.28;5006727;28;20204;-82
2022/12/09 03:27:46;;;;;;;70.88;52.30;;;;;;;0.02;100.00;100471.03;5000885;28;20046;-81
2022/12/09 03:30:12;;;;;;;69.43;50.15;;;;;;;-0.11;100.00;100445.03;5005670;28;20060;-82
2022/12/09 03:32:40;;;;;;;67.70;50.20;;;;;;;0.01;100.00;100464.94;5002099;28;20416;-82
2022/12/09 03:35:19;;;;;;;71.57;51.55;;;;;;;0.04;100.00;100461.38;5005194;28;20467;-82
2022/12/09 03:37:46;;;;;;;72.22;52.10;;;;;;;0.01;100.00;100458.84;5004553;28;20038;-82
2022/12/09 03:40:14;;;;;;;74.40;53.00;;;;;;;0.01;100.00;100461.44;5002939;28;20037;-81
2022/12/09 03:42:54;;;;;;;72.00;51.42;;;;;;;-0.03;100.00;100451.03;5000322;28;20819;-82
2022/12/09 03:45:22;;;;;;;74.15;52.78;;;;;;;-0.04;100.00;100456.28;5004988;28;20022;-83
2022/12/09 03:47:48;;;;;;;76.20;53.05;;;;;;;-0.09;100.00;100445.84;5005102;28;20083;-83
2022/12/09 03:50:13;;;;;;;75.30;53.70;;;;;;;-0.05;100.00;100458.00;4998721;28;20046;-83
2022/12/09 03:52:44;;;;;;;76.88;53.28;;;;;;;-0.04;100.00;100461.53;5001045;28;20030;-83
2022/12/09 03:55:23;;;;;;;82.88;54.78;;;;;;;-0.07;100.00;100457.19;5003671;28;20018;-82
2022/12/09 03:57:51;;;;;;;76.85;53.72;;;;;;;-0.06;100.00;100453.66;5000437;28;20029;-81
2022/12/09 04:00:17;;;;;;;78.20;55.22;;;;;;;-0.14;100.00;100449.44;4997543;28;20037;-83
2022/12/09 04:02:43;;;;;;;81.32;56.53;;;;;;;-0.11;100.00;100452.88;5004355;28;20041;-82
2022/12/09 04:05:09;;;;;;;82.03;54.60;;;;;;;-0.11;100.00;100454.63;5004603;28;20105;-82
2022/12/09 04:07:34;;;;;;;83.45;55.78;;;;;;;-0.07;100.00;100457.19;4996095;28;20148;-82
2022/12/09 04:09:59;;;;;;;85.53;57.63;;;;;;;-0.17;100.00;100442.47;5002554;28;20056;-82
2022/12/09 04:12:25;;;;;;;82.82;56.75;;;;;;;-0.12;100.00;100447.69;5000890;28;20536;-82
2022/12/09 04:14:50;;;;;;;86.88;57.83;;;;;;;-0.08;100.00;100449.38;5004016;28;20609;-81
2022/12/09 04:17:15;;;;;;;84.45;57.97;;;;;;;-0.18;100.00;100437.28;5000252;28;20252;-82
2022/12/09 04:19:41;;;;;;;89.00;57.10;;;;;;;-0.13;100.00;100446.78;4996328;28;20115;-82
2022/12/09 04:22:06;;;;;;;82.03;56.22;;;;;;;-0.10;100.00;100445.88;5004584;28;20022;-82
2022/12/09 04:24:31;;;;;;;89.10;57.42;;;;;;;-0.12;100.00;100445.91;5003392;28;20573;-83
2022/12/09 04:26:57;;;;;;;90.93;59.50;;;;;;;-0.09;100.00;100451.09;4996176;28;20476;-82
2022/12/09 04:29:22;;;;;;;89.35;57.90;;;;;;;-0.11;100.00;100445.03;4995954;28;20023;-84
2022/12/09 04:31:47;;;;;;;83.68;57.63;;;;;;;-0.15;100.00;100443.34;5002686;28;20168;-82
2022/12/09 04:34:12;;;;;;;85.95;58.67;;;;;;;-0.22;100.00;100433.84;4992333;28;20032;-82
2022/12/09 04:36:38;;;;;;;86.20;59.58;;;;;;;-0.15;100.00;100430.25;5001094;28;20041;-82
2022/12/09 04:39:03;;;;;;;90.35;59.03;;;;;;;-0.09;100.00;100447.59;4998841;28;20028;-82
2022/12/09 04:41:29;;;;;;;85.15;57.55;;;;;;;-0.11;100.00;100439.78;5001820;28;20033;-82
2022/12/09 04:43:54;;;;;;;90.75;58.17;;;;;;;-0.15;100.00;100434.63;5003503;28;20034;-82
2022/12/09 04:46:19;;;;;;;94.65;61.25;;;;;;;-0.14;100.00;100431.13;5005892;28;20034;-81
2022/12/09 04:48:45;;;;;;;97.30;58.60;;;;;;;-0.16;100.00;100425.06;5007123;28;20026;-81
2022/12/09 04:51:13;;;;;;;92.55;59.67;;;;;;;-0.13;100.00;100440.69;5005265;28;20050;-82
2022/12/09 04:53:38;;;;;;;92.05;60.88;;;;;;;-0.14;100.00;100433.72;5007500;28;20030;-82
2022/12/09 04:56:14;;;;;;;86.30;57.45;;;;;;;-0.12;100.00;100443.31;5006144;28;20025;-82
2022/12/09 04:58:40;;;;;;;92.75;59.58;;;;;;;-0.10;100.00;100438.03;5003700;28;20498;-82
2022/12/09 05:01:07;;;;;;;88.97;58.83;;;;;;;-0.18;100.00;100438.13;5009905;28;20025;-82
2022/12/09 05:03:32;;;;;;;91.00;58.80;;;;;;;-0.16;100.00;100441.63;5015394;28;20034;-82
2022/12/09 05:05:58;;;;;;;88.50;56.35;;;;;;;-0.12;100.00;100442.44;5009466;28;20052;-82
2022/12/09 05:08:23;;;;;;;87.03;59.70;;;;;;;-0.12;100.00;100443.31;5007780;28;20737;-82
2022/12/09 05:10:49;;;;;;;84.57;55.85;;;;;;;-0.13;100.00;100436.31;5021283;28;20087;-82
2022/12/09 05:13:15;;;;;;;94.25;58.72;;;;;;;-0.13;100.00;100438.94;4999077;28;20040;-83
2022/12/09 05:15:40;;;;;;;91.68;58.95;;;;;;;-0.11;100.00;100437.19;5009046;28;20033;-83
2022/12/09 05:18:06;;;;;;;90.32;58.00;;;;;;;-0.12;100.00;100438.06;5004982;28;20025;-82
2022/12/09 05:20:31;;;;;;;91.93;58.38;;;;;;;-0.11;100.00;100433.69;5006125;28;20022;-82
2022/12/09 05:22:56;;;;;;;87.72;59.85;;;;;;;-0.11;100.00;100437.19;5009668;28;20076;-81
2022/12/09 05:25:22;;;;;;;92.05;59.63;;;;;;;-0.09;100.00;100440.63;5009586;28;20034;-81
2022/12/09 05:27:48;;;;;;;89.07;58.40;;;;;;;-0.15;100.00;100438.09;5011581;28;20053;-82
2022/12/09 05:30:13;;;;;;;90.13;59.42;;;;;;;-0.16;100.00;100433.75;5007548;28;20259;-82
2022/12/09 05:32:39;;;;;;;89.93;58.90;;;;;;;-0.14;100.00;100429.38;5006856;28;20029;-81
2022/12/09 05:35:05;;;;;;;90.50;59.13;;;;;;;-0.10;100.00;100436.28;5013898;28;20042;-82
2022/12/09 05:37:30;;;;;;;83.72;54.80;;;;;;;-0.09;100.00;100442.38;5009676;28;20037;-81
2022/12/09 05:39:55;;;;;;;88.60;58.28;;;;;;;-0.13;100.00;100438.94;5007099;28;20033;-81
2022/12/09 05:42:21;;;;;;;86.35;57.25;;;;;;;-0.10;100.00;100438.91;5007421;28;20037;-81
2022/12/09 05:44:46;;;;;;;88.13;56.80;;;;;;;-0.12;100.00;100430.22;5008903;28;20025;-82
2022/12/09 05:47:11;;;;;;;88.10;55.15;;;;;;;-0.18;100.00;100411.13;5007563;28;20139;-82
2022/12/09 05:49:37;;;;;;;85.43;56.65;;;;;;;-0.07;100.00;100440.63;4999895;28;20038;-82
2022/12/09 05:52:03;;;;;;;86.35;55.53;;;;;;;-0.07;100.00;100438.00;4988202;28;20038;-81
2022/12/09 05:54:28;;;;;;;88.72;57.47;;;;;;;-0.14;100.00;100425.88;4985381;28;20444;-82
2022/12/09 05:56:55;;;;;;;90.90;59.13;;;;;;;-0.12;100.00;100429.38;4983253;28;20030;-82
2022/12/09 05:59:21;;;;;;;96.28;59.75;;;;;;;-0.12;100.00;100432.84;4983375;28;20042;-82
2022/12/09 06:01:46;;;;;;;94.63;60.63;;;;;;;-0.07;100.00;100443.22;4986453;28;20045;-81
2022/12/09 06:04:11;;;;;;;89.82;59.42;;;;;;;-0.13;100.00;100438.06;4985761;28;20031;-82
2022/12/09 06:06:37;;;;;;;89.07;57.95;;;;;;;-0.09;100.00;100437.16;4985811;28;20032;-82
2022/12/09 06:09:02;;;;;;;88.20;57.28;;;;;;;-0.13;100.00;100432.84;4985488;28;20034;-82
2022/12/09 06:11:28;;;;;;;87.15;57.38;;;;;;;-0.13;100.00;100427.59;4986323;28;20034;-82
2022/12/09 06:13:53;;;;;;;89.70;58.10;;;;;;;-0.17;100.00;100416.31;4986693;28;20030;-82
2022/12/09 06:16:21;;;;;;;92.00;59.67;;;;;;;-0.15;100.00;100421.53;4985171;28;20018;-81
2022/12/09 06:18:47;;;;;;;94.63;58.55;;;;;;;-0.18;100.00;100424.19;4981883;28;20027;-82
2022/12/09 06:21:14;;;;;;;96.68;60.67;;;;;;;-0.13;100.00;100422.38;4984132;28;20214;-82
2022/12/09 06:23:40;;;;;;;94.68;60.10;;;;;;;-0.10;100.00;100428.44;4986012;28;20056;-81
2022/12/09 06:26:07;;;;;;;96.43;59.55;;;;;;;-0.20;100.00;100418.13;4985493;28;20475;-81
2022/12/09 06:28:33;;;;;;;92.78;60.72;;;;;;;-0.17;100.00;100432.00;4984226;28;20492;-82
2022/12/09 06:30:59;;;;;;;90.10;56.80;;;;;;;-0.15;100.00;100442.47;4979466;28;20104;-83
2022/12/09 06:33:24;;;;;;;89.90;58.20;;;;;;;-0.28;100.00;100429.56;4974536;28;20035;-81
2022/12/09 06:35:50;;;;;;;88.55;59.65;;;;;;;-0.26;100.00;100430.38;4982574;28;20030;-81
2022/12/09 06:38:15;;;;;;;89.45;58.63;;;;;;;-0.28;100.00;100426.94;4978811;28;20049;-82
2022/12/09 06:40:42;;;;;;;93.55;58.97;;;;;;;-0.23;100.00;100439.94;4991984;28;20030;-81
2022/12/09 06:43:09;;;;;;;93.57;59.58;;;;;;;-0.25;100.00;100439.13;4989601;28;20076;-82
2022/12/09 06:45:35;;;;;;;91.85;59.33;;;;;;;-0.27;100.00;100425.19;4989095;28;20112;-82
2022/12/09 06:48:01;;;;;;;94.60;60.70;;;;;;;-0.21;100.00;100434.69;4988617;28;20034;-82
2022/12/09 06:50:26;;;;;;;95.63;60.42;;;;;;;-0.20;100.00;100433.84;4988110;28;20060;-82
2022/12/09 06:52:51;;;;;;;92.70;60.22;;;;;;;-0.26;100.00;100425.16;5006916;28;20359;-83
2022/12/09 06:55:16;;;;;;;94.22;59.47;;;;;;;-0.24;100.00;100427.78;5002370;28;20049;-83
2022/12/09 06:57:42;;;;;;;87.97;57.85;;;;;;;-0.24;100.00;100429.53;5000420;28;20164;-82
2022/12/09 07:00:07;;;;;;;90.00;58.53;;;;;;;-0.17;100.00;100439.84;4997792;28;20048;-81
2022/12/09 07:02:33;;;;;;;88.18;57.17;;;;;;;-0.21;100.00;100439.91;5003688;28;20095;-82
2022/12/09 07:04:59;;;;;;;94.60;61.53;;;;;;;-0.18;100.00;100448.59;5001364;28;20033;-81
2022/12/09 07:07:24;;;;;;;93.30;59.60;;;;;;;-0.19;100.00;100443.41;5003465;28;20093;-81
2022/12/09 07:09:49;;;;;;;89.90;59.67;;;;;;;-0.19;100.00;100436.41;5005940;28;20396;-81
2022/12/09 07:12:15;;;;;;;90.60;58.20;;;;;;;-0.20;100.00;100447.78;4995258;28;20025;-82
2022/12/09 07:14:40;;;;;;;88.53;59.17;;;;;;;-0.29;100.00;100438.28;5006614;28;20061;-82
2022/12/09 07:17:06;;;;;;;91.20;58.03;;;;;;;-0.25;100.00;100446.97;5007170;28;20030;-82
2022/12/09 07:19:32;;;;;;;93.95;59.45;;;;;;;-0.23;100.00;100450.41;5002515;28;20479;-81
2022/12/09 07:21:57;;;;;;;91.22;59.08;;;;;;;-0.27;100.00;100440.88;5006709;28;20116;-82
2022/12/09 07:24:23;;;;;;;91.53;60.22;;;;;;;-0.22;100.00;100456.50;4999844;28;20152;-81
2022/12/09 07:26:49;;;;;;;93.03;58.80;;;;;;;-0.20;100.00;100454.75;5004321;28;20037;-82
2022/12/09 07:29:14;;;;;;;95.53;58.78;;;;;;;-0.21;100.00;100466.94;5004755;28;20038;-82
2022/12/09 07:31:40;;;;;;;93.72;59.08;;;;;;;-0.23;100.00;100458.25;5006446;28;20034;-82
2022/12/09 07:34:05;;;;;;;95.32;58.53;;;;;;;-0.20;100.00;100458.22;5005940;28;20038;-81
2022/12/09 07:36:33;;;;;;;94.35;58.95;;;;;;;-0.20;100.00;100455.63;4995961;28;20032;-82
2022/12/09 07:39:10;;;;;;;91.03;56.95;;;;;;;-0.19;100.00;100461.72;5000232;28;20750;-88
2022/12/09 07:41:35;;;;;;;93.65;59.80;;;;;;;-0.19;100.00;100459.09;5000309;28;20034;-89
2022/12/09 07:44:00;;;;;;;89.80;56.42;;;;;;;-0.23;100.00;100458.25;5010366;28;20045;-89
2022/12/09 07:46:26;;;;;;;90.72;58.95;;;;;;;-0.22;100.00;100462.59;5018081;28;20503;-88
2022/12/09 07:48:52;;;;;;;92.32;56.90;;;;;;;-0.27;100.00;100457.44;5006392;28;20303;-88
2022/12/09 07:51:18;;;;;;;98.18;59.22;;;;;;;-0.21;100.00;100466.94;5007029;28;20120;-88
2022/12/09 07:53:44;;;;;;;93.63;59.20;;;;;;;-0.23;100.00;100471.34;4990870;28;20057;-87
2022/12/09 07:56:13;;;;;;;89.63;56.00;;;;;;;-0.28;100.00;100463.56;5003799;28;20031;-88
2022/12/09 07:58:39;;;;;;;91.53;56.70;;;;;;;-0.26;100.00;100460.91;5005467;28;20033;-88
2022/12/09 08:01:09;;;;;;;91.80;58.13;;;;;;;-0.23;100.00;100471.34;5002341;28;20036;-88
2022/12/09 08:03:35;;;;;;;93.65;58.78;;;;;;;-0.22;100.00;100464.34;5005265;28;20073;-88
2022/12/09 08:06:00;;;;;;;96.45;58.13;;;;;;;-0.23;100.00;100457.41;5008891;28;20068;-87
2022/12/09 08:08:26;;;;;;;87.40;57.95;;;;;;;-0.24;100.00;100461.78;5006257;28;20034;-88
2022/12/09 08:10:53;;;;;;;93.05;58.78;;;;;;;-0.14;100.00;100475.59;5006148;28;20629;-88
2022/12/09 08:13:19;;;;;;;95.45;58.28;;;;;;;-0.13;100.00;100472.94;5008749;28;20026;-88
2022/12/09 08:15:45;;;;;;;94.72;59.30;;;;;;;-0.15;100.00;100464.25;5006172;28;20121;-89
2022/12/09 08:18:10;;;;;;;91.25;59.35;;;;;;;-0.09;100.00;100473.78;5002018;28;21891;-88
2022/12/09 08:20:36;;;;;;;97.28;60.58;;;;;;;-0.21;100.00;100456.47;5006444;28;20597;-89
2022/12/09 08:23:01;;;;;;;98.63;59.70;;;;;;;-0.11;100.00;100476.41;5006093;28;20053;-89
2022/12/09 08:25:27;;;;;;;99.18;60.00;;;;;;;-0.04;100.00;100474.59;5007437;28;20024;-89
2022/12/09 08:27:52;;;;;;;97.97;59.90;;;;;;;0.02;100.00;100473.63;5003741;28;20076;-89
2022/12/09 08:30:17;;;;;;;104.18;62.78;;;;;;;-0.01;100.00;100456.22;5007500;28;20026;-88
2022/12/09 08:32:43;;;;;;;101.80;61.88;;;;;;;0.11;100.00;100470.88;5006909;28;20188;-88
2022/12/09 08:35:13;;;;;;;98.95;58.67;;;;;;;0.06;100.00;100459.63;5008841;28;20018;-89
2022/12/09 08:37:40;;;;;;;102.82;60.67;;;;;;;0.07;100.00;100463.97;5001385;28;20029;-90
2022/12/09 08:40:06;;;;;;;100.25;58.97;;;;;;;0.06;100.00;100459.63;5011297;28;20025;-89
2022/12/09 08:42:32;;;;;;;102.47;59.80;;;;;;;0.10;100.00;100464.78;5005695;28;20769;-89
2022/12/09 08:44:57;;;;;;;95.85;59.42;;;;;;;0.17;100.00;100476.91;5013296;28;20630;-89
2022/12/09 08:47:23;;;;;;;93.80;57.97;;;;;;;0.17;100.00;100476.91;5003845;28;20375;-88
2022/12/09 08:49:48;;;;;;;99.15;58.97;;;;;;;0.15;100.00;100468.19;5007886;28;20113;-88
2022/12/09 08:52:13;;;;;;;97.68;58.95;;;;;;;0.12;100.00;100465.63;5005065;28;20040;-89
2022/12/09 08:54:38;;;;;;;91.35;56.28;;;;;;;0.10;100.00;100461.31;5012119;28;20033;-88
2022/12/09 08:57:04;;;;;;;88.20;53.20;;;;;;;0.19;100.00;100469.03;5008596;28;20096;-89
2022/12/09 08:59:29;;;;;;;89.82;54.67;;;;;;;0.14;100.00;100456.00;5020459;28;20018;-89
2022/12/09 09:01:54;;;;;;;94.95;56.35;;;;;;;0.17;100.00;100458.59;5014991;28;20057;-89
2022/12/09 09:04:21;;;;;;;92.80;56.20;;;;;;;0.13;100.00;100463.91;5010830;28;20022;-89
2022/12/09 09:06:48;;;;;;;89.55;54.88;;;;;;;0.26;100.00;100473.31;5000768;28;20989;-89
2022/12/09 09:11:49;;;;;;;97.38;56.60;;;;;;;0.30;100.00;100461.91;5463994;22;20062;-89
2022/12/09 09:14:15;;;;;;;95.05;56.70;;;;;;;0.43;100.00;100462.56;5024028;28;20076;-89
2022/12/09 09:16:42;;;;;;;92.20;56.75;;;;;;;0.43;100.00;100457.34;5024090;28;20076;-89
2022/12/09 09:19:13;;;;;;;81.25;54.40;;;;;;;0.56;100.00;100474.56;5025182;28;20111;-89
2022/12/09 09:21:39;;;;;;;80.82;51.03;;;;;;;0.72;100.00;100480.44;5025333;28;20052;-88
2022/12/09 09:24:13;;;;;;;86.45;51.33;;;;;;;0.64;100.00;100463.97;5024098;28;20470;-88
2022/12/09 09:26:40;;;;;;;84.65;50.75;;;;;;;0.77;100.00;100489.09;5030742;28;20037;-87
2022/12/09 09:29:06;;;;;;;80.00;49.05;;;;;;;0.72;100.00;100488.31;5040954;28;20124;-87
2022/12/09 09:31:33;;;;;;;85.15;52.03;;;;;;;0.53;100.00;100479.00;5027100;28;20295;-89
2022/12/09 09:33:58;;;;;;;81.63;51.15;;;;;;;0.58;100.00;100487.63;5023399;28;20034;-88
2022/12/09 09:36:23;;;;;;;79.50;51.50;;;;;;;0.49;100.00;100476.41;5023804;28;20811;-89
2022/12/09 09:38:51;;;;;;;81.70;49.47;;;;;;;0.55;100.00;100474.63;5027924;28;20032;-87
2022/12/09 09:41:40;;;;;;;72.05;46.40;;;;;;;0.66;100.00;100491.88;5024932;28;20025;-88
2022/12/09 09:44:31;;;;;;;67.50;44.67;;;;;;;0.78;100.00;100490.81;5031442;28;20036;-88
2022/12/09 09:46:58;;;;;;;71.18;44.30;;;;;;;0.73;100.00;100490.88;5023296;28;20034;-88
2022/12/09 09:49:34;;;;;;;68.10;43.35;;;;;;;0.68;100.00;100495.34;5024665;28;20029;-85
2022/12/09 09:52:05;;;;;;;64.18;41.97;;;;;;;0.49;100.00;100479.03;5026986;28;20659;-85
2022/12/09 09:54:31;;;;;;;63.08;40.70;;;;;;;0.45;100.00;100477.34;5023648;28;20129;-86
2022/12/09 09:57:04;;;;;;;63.55;39.40;;;;;;;0.40;100.00;100479.19;5026001;28;20029;-84
2022/12/09 09:59:56;;;;;;;62.35;40.08;;;;;;;0.44;100.00;100488.72;5020017;28;20025;-86
2022/12/09 10:02:39;;;;;;;59.20;39.70;;;;;;;0.38;100.00;100480.97;5035229;28;20057;-85
2022/12/09 10:05:26;;;;;;;65.75;40.75;;;;;;;0.44;100.00;100480.88;5036719;28;20032;-86
2022/12/09 10:07:55;;;;;;;63.28;40.95;;;;;;;0.49;100.00;100473.78;5029705;28;20025;-86
2022/12/09 10:10:23;;;;;;;58.90;38.75;;;;;;;0.62;100.00;100484.94;5045631;28;20051;-84
2022/12/09 10:13:21;;;;;;;55.90;35.97;;;;;;;0.78;100.00;100485.56;5026477;28;20112;-84
2022/12/09 10:16:17;;;;;;;48.92;33.42;;;;;;;0.98;100.00;100466.91;5024109;28;20053;-86
2022/12/09 10:18:56;;;;;;;50.75;34.08;;;;;;;1.38;100.00;100480.16;5027200;28;20419;-86
2022/12/09 10:21:21;;;;;;;56.35;34.72;;;;;;;1.72;100.00;100479.47;5025547;28;20057;-86
2022/12/09 10:23:48;;;;;;;54.97;36.10;;;;;;;1.88;100.00;100483.53;5028114;28;20110;-86
2022/12/09 10:26:20;;;;;;;48.60;33.53;;;;;;;2.02;100.00;100475.34;5026804;28;20018;-86
2022/12/09 10:28:52;;;;;;;46.80;31.75;;;;;;;1.97;100.00;100478.06;5022056;28;20394;-86
2022/12/09 10:31:18;;;;;;;49.47;32.60;;;;;;;1.94;100.00;100483.38;5025721;28;20040;-86
2022/12/09 10:33:43;;;;;;;49.60;32.63;;;;;;;1.80;100.00;100469.69;5026333;28;20453;-86
2022/12/09 10:36:26;;;;;;;49.22;32.92;;;;;;;1.79;100.00;100483.69;5022224;28;20944;-86
2022/12/09 10:38:52;;;;;;;43.67;30.42;;;;;;;1.65;100.00;100455.13;5025786;28;20065;-87
2022/12/09 10:44:23;;;;;;;47.08;32.10;;;;;;;1.99;100.00;100476.25;5025612;28;20040;-87
2022/12/09 10:47:05;;;;;;;49.58;32.08;;;;;;;2.32;100.00;100473.78;5042597;28;20125;-86
2022/12/09 10:49:33;;;;;;;48.72;31.73;;;;;;;2.43;100.00;100477.03;5020259;28;20025;-84
2022/12/09 10:51:58;;;;;;;47.70;30.20;;;;;;;2.43;100.00;100473.56;5028191;28;20045;-86
2022/12/09 10:54:35;;;;;;;45.85;29.75;;;;;;;2.30;100.00;100478.22;5040080;28;20037;-86
2022/12/09 10:57:12;;;;;;;46.20;29.48;;;;;;;2.29;100.00;100486.97;5024039;28;20033;-85
2022/12/09 10:59:39;;;;;;;42.58;29.27;;;;;;;2.29;100.00;100480.88;5025290;28;20048;-84
2022/12/09 11:02:07;;;;;;;44.20;29.40;;;;;;;2.26;100.00;100479.19;5024268;28;20049;-86
2022/12/09 11:04:38;;;;;;;38.92;26.88;;;;;;;2.15;100.00;100462.81;5019464;28;20554;-85
2022/12/09 11:07:06;;;;;;;40.70;25.67;;;;;;;2.00;100.00;100470.09;5017393;28;20118;-86
2022/12/09 11:09:54;;;;;;;37.03;26.20;;;;;;;1.70;100.00;100470.75;5021342;28;20390;-84
2022/12/09 11:12:25;;;;;;;40.83;27.30;;;;;;;1.48;100.00;100481.69;5016638;28;20041;-86
2022/12/09 11:14:52;;;;;;;41.13;27.73;;;;;;;1.33;100.00;100468.84;5019908;28;20025;-87